Aviation Digital Data Service (ADDS)

Output produced by METARs form (1646 UTC 20 January 2019)
found at http://www.aviationweather.gov/metar/data/
 
Forecast for: YPCC (COCOS ISL INTL A, AU)
Text: TAF YPCC 201109Z 2012/2112 19014KT 3000 RA BKN008
Forecast period: 1200 to 1800 UTC 20 January 2019
Forecast type: FROM: standard forecast or significant change
Winds: from the S (190 degrees) at 16 MPH (14 knots; 7.2 m/s)
Visibility: 1.86 miles (2.99 km)
Ceiling: 800 feet AGL
Clouds: broken clouds at 800 feet AGL
Weather: RA  (moderate rain)
Text: FM201800 05012KT 8000 -RA SCT010 BKN018
Forecast period: 1800 UTC 20 January 2019 to 1200 UTC 21 January 2019
Forecast type: FROM: standard forecast or significant change
Winds: from the NE (50 degrees) at 14 MPH (12 knots; 6.2 m/s)
Visibility: 5 miles (8 km)
Ceiling: 1800 feet AGL
Clouds: scattered clouds at 1000 feet AGL
broken clouds at 1800 feet AGL
Weather: -RA  (light rain)
Text: TEMPO 2012/2112 VRB20G30KT 0500 TSRA BKN002 SCT015CB
Forecast period: 1200 UTC 20 January 2019 to 1200 UTC 21 January 2019
Forecast type: TEMPORARY: The following changes expected for less than half the time period
Winds: variable direction winds at 23 MPH (20 knots; 10.3 m/s)
gusting to 34 MPH (30 knots; 15.4 m/s)
Visibility: 0.31 miles (0.50 km)
Ceiling: 200 feet AGL
Clouds: broken clouds at 200 feet AGL
scattered clouds at 1500 feet AGL
Weather: TSRA  (rain associated with thunderstorm(s))